Date,TemperatureHighF,TemperatureAvgF,TemperatureLowF,DewpointHighF,DewpointAvgF,DewpointLowF,HumidityHigh,HumidityAvg,HumidityLow,PressureMaxIn,PressureMinIn,WindSpeedMaxMPH,WindSpeedAvgMPH,GustSpeedMaxMPH,PrecipitationSumIn
2013-1-14,42.0,41.1,40.0,27.0,23.7,21.0,54,50,44,0.00,40.00,6,4,20,4.70
2013-1-15,41.0,30.0,21.0,27.0,22.3,16.0,92,75,48,0.00,40.00,6,2,14,0.25
2013-1-16,28.0,21.9,19.0,21.0,17.7,16.0,89,84,72,0.00,40.00,2,0,6,0.02
2013-1-17,24.0,16.3,10.0,19.0,11.8,5.0,86,82,76,0.00,40.00,5,1,8,0.00
2013-1-18,10.0,5.5,-2.0,6.0,1.3,-7.0,85,82,79,0.00,40.00,2,0,6,0.00
2013-1-19,12.0,6.0,-8.0,6.0,1.4,-13.0,83,80,78,0.00,40.00,1,0,4,0.00
2013-1-20,15.0,12.8,10.0,11.0,8.1,6.0,84,81,77,0.00,40.00,2,1,6,0.00
2013-1-21,11.0,7.1,-3.0,7.0,3.1,-7.0,85,83,81,0.00,40.00,0,0,2,0.00
2013-1-22,15.0,11.5,6.0,10.0,7.2,2.0,85,83,78,0.00,40.00,1,0,4,0.00
2013-1-23,17.0,11.9,-3.0,11.0,7.1,-8.0,85,81,76,0.00,40.00,1,0,3,0.00
2013-1-24,22.0,13.0,4.0,16.0,8.9,-1.0,87,83,76,0.00,40.00,1,0,2,0.00
2013-1-25,18.0,9.2,-1.0,14.0,5.0,-5.0,84,82,79,0.00,40.00,3,1,9,0.00
2013-1-26,5.0,-3.8,-13.0,0.0,-10.0,-18.0,79,74,69,0.00,40.00,3,2,8,0.00
2013-1-27,-10.0,-15.5,-26.0,-17.0,-22.0,-32.0,76,71,60,0.00,40.00,3,0,9,0.00
2013-1-28,-14.0,-21.2,-38.0,-21.0,-28.1,-45.0,72,69,65,0.00,40.00,0,0,1,0.00
2013-1-29,-4.0,-9.4,-14.0,-10.0,-16.3,-21.0,76,71,64,0.00,40.00,2,0,4,0.00
2013-1-30,14.0,6.0,-4.0,10.0,0.4,-9.0,83,77,69,0.00,40.00,1,0,4,0.00
2013-1-31,22.0,20.0,17.0,18.0,16.4,12.0,88,85,79,0.00,40.00,2,1,5,0.00
2013-2-1,18.0,14.6,12.0,15.0,11.5,9.0,88,86,85,0.00,40.00,1,0,4,0.00
2013-2-2,24.0,14.9,2.0,19.0,11.0,-2.0,87,84,80,0.00,40.00,1,0,4,0.00
2013-2-3,19.0,15.7,6.0,16.0,11.8,2.0,87,84,78,0.00,40.00,1,0,4,0.00
2013-2-4,28.0,18.3,0.0,22.0,14.5,-4.0,89,85,74,0.00,40.00,2,0,6,0.00
2013-2-5,18.0,3.1,-15.0,10.0,-2.6,-20.0,83,76,69,0.00,40.00,2,1,4,0.00
2013-2-6,16.0,3.8,-19.0,8.0,-1.8,-25.0,84,77,68,0.00,40.00,1,0,4,0.00
2013-2-7,19.0,8.9,-12.0,14.0,4.1,-17.0,86,81,69,0.00,40.00,2,0,4,0.00
2013-2-8,33.0,21.5,9.0,27.0,18.1,5.0,91,86,78,0.00,40.00,2,1,6,0.00
2013-2-9,35.0,25.7,13.0,31.0,23.1,9.0,94,90,85,0.00,40.00,4,1,11,0.00
2013-2-10,41.0,33.0,26.0,30.0,24.6,20.0,91,72,51,0.00,40.00,7,3,16,0.19
2013-2-11,40.0,23.1,13.0,22.0,15.7,9.0,92,76,44,0.00,40.00,7,2,15,0.02
2013-2-12,24.0,14.4,-4.0,11.0,6.7,-9.0,86,73,44,0.00,40.00,2,0,4,0.01
2013-2-13,23.0,15.8,3.0,13.0,9.5,-1.0,85,77,62,0.00,40.00,1,0,5,0.00
2013-2-14,35.0,25.8,5.0,28.0,20.4,1.0,88,80,70,0.00,40.00,4,2,10,0.00
2013-2-15,44.0,31.2,26.0,28.0,24.4,20.0,92,77,44,0.00,40.00,3,1,9,0.07
2013-2-16,33.0,24.7,16.0,24.0,18.0,12.0,90,76,55,0.00,40.00,5,2,10,0.04
2013-2-17,30.0,23.1,17.0,21.0,16.8,12.0,87,77,67,0.00,40.00,5,2,11,0.00
2013-2-18,26.0,16.3,11.0,19.0,11.6,7.0,88,82,71,0.00,40.00,4,1,9,0.00
2013-2-19,23.0,12.4,-8.0,8.0,5.3,-13.0,83,74,52,0.00,40.00,2,0,5,0.00
2013-2-20,20.0,10.6,5.0,7.0,4.3,1.0,84,75,56,0.00,40.00,2,1,6,0.00
2013-2-21,19.0,11.0,2.0,10.0,5.0,-2.0,84,77,64,0.00,40.00,2,1,6,0.00
2013-2-22,21.0,10.4,-5.0,9.0,3.5,-10.0,83,74,54,0.00,40.00,1,0,5,0.00
2013-2-23,31.0,19.3,-5.0,19.0,11.9,-10.0,86,73,57,0.00,40.00,2,1,7,0.00
2013-2-24,37.0,21.5,10.0,24.0,15.4,6.0,88,78,56,0.00,40.00,2,1,6,0.00
2013-2-25,36.0,16.0,-10.0,13.0,2.0,-15.0,83,58,27,0.00,40.00,3,1,8,0.01
2013-2-26,31.0,16.5,-2.0,8.0,3.5,-7.0,82,60,31,0.00,40.00,4,1,9,0.01
2013-2-27,36.0,19.1,-6.0,11.0,5.9,-11.0,83,60,30,0.00,40.00,2,1,7,0.00
2013-2-28,31.0,18.2,3.0,13.0,7.7,-1.0,84,65,41,0.00,40.00,5,1,9,0.00
2013-3-1,39.0,22.8,9.0,18.0,10.7,5.0,83,63,33,0.00,40.00,6,2,14,0.01
2013-3-2,29.0,18.1,6.0,19.0,8.5,2.0,88,69,44,0.00,40.00,1,0,4,0.01
2013-3-3,38.0,17.4,0.0,18.0,8.7,-5.0,88,71,42,0.00,40.00,2,0,5,0.01
2013-3-4,34.0,15.1,-10.0,11.0,2.0,-15.0,82,60,33,0.00,40.00,3,1,6,0.01
2013-3-5,34.0,16.3,-10.0,7.0,1.3,-15.0,81,56,31,0.00,40.00,2,1,5,0.00
2013-3-6,39.0,17.6,-11.0,8.0,1.5,-16.0,82,53,26,0.00,40.00,1,0,5,0.00
2013-3-7,38.0,22.8,-7.0,15.0,7.8,-12.0,81,55,32,0.00,40.00,1,0,4,0.00
2013-3-8,44.0,30.8,17.0,28.0,21.2,11.0,89,69,49,0.00,40.00,3,1,6,0.14
2013-3-9,42.0,28.5,12.0,23.0,16.2,5.0,86,63,34,0.00,40.00,3,2,8,0.04
2013-3-10,40.0,23.0,-3.0,11.0,7.0,-7.0,83,53,30,0.00,40.00,3,1,6,0.02
2013-3-11,33.0,24.1,2.0,13.0,5.9,-4.0,82,49,29,0.00,40.00,12,4,27,0.00
2013-3-12,25.0,19.8,12.0,-1.0,-7.9,-12.0,52,30,18,0.00,40.00,15,10,35,0.00
2013-3-13,23.0,12.4,-5.0,-10.0,-12.3,-14.0,64,33,21,0.00,40.00,12,5,29,0.00
2013-3-14,34.0,13.3,-2.0,-2.0,-7.7,-14.0,69,40,19,0.00,40.00,7,2,20,0.00
2013-3-15,19.0,6.1,-15.0,-5.0,-8.9,-21.0,75,52,31,0.00,40.00,4,2,10,0.00
2013-3-16,29.0,12.4,-13.0,-2.0,-6.0,-19.0,77,47,26,0.00,40.00,3,2,7,0.00
2013-3-17,27.0,9.0,-18.0,-2.0,-7.7,-24.0,77,51,28,0.00,40.00,3,2,8,0.00
2013-3-18,30.0,10.4,-21.0,-1.0,-7.6,-27.0,77,48,25,0.00,40.00,3,1,13,0.00
2013-3-19,22.0,10.2,-10.0,-2.0,-6.1,-15.0,79,50,29,0.00,40.00,6,2,16,0.00
2013-3-20,18.0,4.0,-10.0,-9.0,-12.6,-20.0,71,48,28,0.00,40.00,5,2,11,0.00
2013-3-21,23.0,3.4,-26.0,-10.0,-16.2,-32.0,74,45,21,0.00,40.00,3,1,8,0.00
2013-3-22,25.0,13.2,-11.0,13.0,3.3,-19.0,78,65,53,0.00,40.00,2,1,6,0.00
2013-3-23,44.0,31.5,11.0,17.0,12.1,6.0,81,48,27,0.00,40.00,7,4,20,0.00
2013-3-24,46.0,33.9,24.0,23.0,18.4,15.0,77,55,32,0.00,40.00,4,1,9,0.00
2013-3-25,44.0,32.8,24.0,22.0,14.2,-2.0,61,47,27,0.00,40.00,10,4,22,0.00
2013-3-26,33.0,22.0,8.0,5.0,2.0,-2.0,77,44,25,0.00,40.00,7,4,19,0.00
2013-3-27,30.0,18.9,10.0,4.0,1.4,-3.0,62,47,31,0.00,40.00,5,4,12,0.00
2013-3-28,38.0,30.7,21.0,8.0,3.9,0.0,55,33,22,0.00,40.00,4,2,8,0.00
2013-3-29,35.0,25.4,12.0,26.0,15.9,6.0,82,67,51,0.00,40.00,4,1,9,0.00
2013-3-30,49.0,35.7,19.0,24.0,20.7,16.0,90,57,34,0.00,40.00,5,2,13,0.00
2013-3-31,44.0,34.3,23.0,26.0,22.2,19.0,88,63,42,0.00,40.00,6,2,11,0.00
2013-4-1,40.0,29.1,19.0,22.0,18.3,12.0,87,67,39,0.00,40.00,4,1,9,0.00
2013-4-2,42.0,27.7,12.0,16.0,12.1,7.0,86,55,31,0.00,40.00,3,2,8,0.00
2013-4-3,46.0,29.0,8.0,14.0,11.0,4.0,85,52,25,0.00,40.00,4,1,9,0.00
2013-4-4,36.0,23.3,11.0,9.0,3.0,-6.0,74,45,24,0.00,40.00,9,5,24,0.00
2013-4-5,32.0,19.4,-1.0,-2.0,-4.2,-8.0,70,37,22,0.00,40.00,8,4,19,0.00
2013-4-6,34.0,18.3,-2.0,3.0,-3.0,-8.0,74,41,23,0.00,40.00,5,2,12,0.00
2013-4-7,49.0,33.3,21.0,29.0,20.2,5.0,85,60,36,0.00,40.00,8,3,21,0.00
2013-4-8,51.0,39.9,32.0,27.0,23.8,21.0,81,54,32,0.00,40.00,5,2,12,0.00
2013-4-9,41.0,33.3,24.0,33.0,20.5,4.0,85,61,31,0.00,40.00,12,4,30,0.01
2013-4-10,33.0,25.4,19.0,11.0,3.0,-4.0,64,39,24,0.00,40.00,9,5,23,0.01
2013-4-11,29.0,21.5,14.0,13.0,6.1,0.0,73,52,33,0.00,40.00,5,2,11,0.00
2013-4-12,29.0,17.2,0.0,2.0,-1.4,-5.0,83,48,28,0.00,40.00,8,4,19,0.00
2013-4-13,33.0,19.0,-2.0,2.0,-1.5,-7.0,77,43,26,0.00,40.00,5,3,12,0.00
2013-4-14,34.0,21.5,-3.0,4.0,0.6,-8.0,80,44,24,0.00,40.00,5,2,11,0.00
2013-4-15,39.0,22.9,-3.0,9.0,2.9,-8.0,81,47,24,0.00,40.00,5,2,11,0.00
2013-4-16,40.0,28.7,11.0,20.0,13.5,6.0,82,56,33,0.00,40.00,6,3,14,0.00
2013-4-17,38.0,25.9,17.0,23.0,18.4,14.0,87,74,45,0.00,40.00,6,2,15,0.00
2013-4-18,38.0,27.5,10.0,17.0,7.7,4.0,81,45,27,0.00,40.00,8,3,15,0.00
2013-4-19,39.0,24.9,3.0,10.0,6.0,-1.0,81,48,28,0.00,40.00,5,2,11,0.00
2013-4-20,45.0,28.7,1.0,11.0,6.9,-3.0,84,45,22,0.00,40.00,4,2,9,0.00
2013-4-21,48.0,30.0,6.0,18.0,8.0,2.0,83,46,19,0.00,40.00,4,1,9,0.00
2013-4-22,51.0,37.1,26.0,29.0,25.8,18.0,91,66,36,0.00,40.00,5,2,9,0.04
2013-4-23,38.0,30.7,23.0,32.0,25.3,20.0,94,81,53,0.00,40.00,2,0,4,0.04
2013-4-24,38.0,34.2,32.0,33.0,31.3,29.0,95,90,81,0.00,40.00,4,0,9,0.37
2013-4-25,38.0,33.6,27.0,29.0,8.9,-2.0,89,38,23,0.00,40.00,17,11,34,0.11
2013-4-26,38.0,28.2,19.0,4.0,1.8,-2.0,47,32,23,0.00,40.00,12,5,30,0.01
2013-4-27,39.0,27.8,11.0,5.0,2.0,-2.0,68,36,20,0.00,40.00,12,6,24,0.02
2013-4-28,36.0,28.8,22.0,-2.0,-6.3,-12.0,32,22,13,0.00,40.00,12,8,27,0.02
2013-4-29,42.0,25.6,2.0,14.0,2.8,-4.0,77,42,21,0.00,40.00,5,2,11,0.01
2013-4-30,39.0,31.3,20.0,26.0,18.4,12.0,90,61,35,0.00,40.00,5,2,11,0.01
2013-5-1,35.0,29.5,19.0,29.0,25.5,17.0,93,86,64,0.00,40.00,2,0,4,0.04
2013-5-2,48.0,38.2,29.0,34.0,27.7,25.0,94,70,42,0.00,40.00,8,3,21,0.33
2013-5-3,46.0,41.6,35.0,34.0,30.8,25.0,80,66,49,0.00,40.00,6,3,14,0.01
2013-5-4,59.0,41.7,33.0,39.0,31.2,27.0,95,71,36,0.00,40.00,9,3,22,0.15
2013-5-5,51.0,42.6,35.0,32.0,29.0,25.0,87,60,39,0.00,40.00,7,4,14,0.01
2013-5-6,49.0,38.8,28.0,27.0,23.5,19.0,87,57,32,0.00,40.00,5,2,11,0.00
2013-5-7,51.0,39.6,26.0,27.0,23.5,21.0,88,56,33,0.00,40.00,5,2,9,0.00
2013-5-8,55.0,41.0,23.0,26.0,23.5,21.0,92,55,29,0.00,40.00,5,2,10,0.00
2013-5-9,56.0,43.2,24.0,25.0,21.8,20.0,86,47,24,0.00,40.00,5,2,10,0.00
2013-5-10,60.0,46.8,28.0,39.0,28.6,22.0,93,54,31,0.00,40.00,3,1,8,0.02
2013-5-11,50.0,42.8,36.0,42.0,38.8,35.0,95,86,65,0.00,40.00,4,1,8,0.27
2013-5-12,51.0,43.2,37.0,40.0,37.6,33.0,96,81,61,0.00,40.00,3,1,8,0.53
2013-5-13,51.0,41.2,30.0,41.0,35.9,28.0,95,83,52,0.00,40.00,4,1,9,0.16
2013-5-14,51.0,39.5,33.0,36.0,31.4,27.0,94,75,44,0.00,40.00,6,2,14,0.03
2013-5-15,51.0,40.1,31.0,32.0,23.9,13.0,94,59,23,0.00,40.00,7,3,16,0.01
2013-5-16,50.0,36.4,29.0,30.0,10.2,-99.9,90,65,40,0.00,40.00,3,1,8,0.01
2013-5-17,54.0,43.1,35.0,35.0,26.3,-99.9,86,65,36,0.00,40.00,5,2,12,0.00
2013-5-18,51.0,40.9,31.0,37.0,27.5,15.0,86,63,23,0.00,40.00,9,3,21,0.01
2013-5-19,47.0,36.1,27.0,24.0,17.5,10.0,78,51,27,0.00,40.00,7,3,16,0.01
2013-5-20,53.0,38.8,18.0,17.0,13.0,9.0,82,41,17,0.00,40.00,5,2,16,0.00
2013-5-21,60.0,43.4,19.0,20.0,15.8,13.0,77,38,18,0.00,40.00,5,2,11,0.00
2013-5-22,65.0,47.3,22.0,23.0,19.9,16.0,80,40,16,0.00,40.00,5,2,14,0.00
2013-5-23,65.0,50.1,25.0,28.0,24.1,19.0,78,41,22,0.00,40.00,6,2,19,0.00
2013-5-24,71.0,55.3,26.0,30.0,26.4,21.0,81,38,17,0.00,40.00,7,3,22,0.00
2013-5-25,73.0,56.1,27.0,35.0,28.4,22.0,81,40,19,0.00,40.00,8,2,27,0.00
2013-5-26,69.0,55.0,37.0,36.0,32.6,29.0,73,46,27,0.00,40.00,4,2,9,0.00
2013-5-27,79.0,59.6,28.0,36.0,30.6,24.0,84,41,15,0.00,40.00,6,3,12,0.00
2013-5-28,81.0,63.4,32.0,36.0,31.8,24.0,73,35,18,0.00,40.00,7,3,18,0.00
2013-5-29,81.0,64.1,40.0,41.0,37.1,33.0,77,41,19,0.00,40.00,7,2,18,0.00
2013-5-30,80.0,63.4,33.0,39.0,36.7,28.0,82,41,23,0.00,40.00,5,2,11,0.00
2013-5-31,76.0,56.9,32.0,41.0,36.7,27.0,83,51,26,0.00,40.00,7,2,11,0.00
2013-6-1,66.0,53.4,37.0,40.0,37.7,33.0,84,57,38,0.00,40.00,4,2,10,0.00
2013-6-2,63.0,51.4,35.0,38.0,35.6,31.0,86,57,37,0.00,40.00,5,2,11,0.00
2013-6-3,57.0,48.9,42.0,42.0,38.1,35.0,91,68,44,0.00,40.00,4,1,9,0.00
2013-6-4,61.0,49.3,35.0,39.0,32.3,25.0,94,58,28,0.00,40.00,7,2,17,0.01
2013-6-5,63.0,52.0,28.0,33.0,28.2,23.0,82,43,27,0.00,40.00,5,2,14,0.00
2013-6-6,69.0,55.9,25.0,32.0,28.2,20.0,80,38,22,0.00,40.00,11,4,21,0.00
2013-6-7,69.0,59.5,39.0,38.0,32.9,28.0,65,38,25,0.00,40.00,9,3,19,0.00
2013-6-8,73.0,57.9,33.0,39.0,34.5,28.0,81,46,22,0.00,40.00,9,3,20,0.00
2013-6-9,77.0,60.2,35.0,41.0,35.3,29.0,80,45,19,0.00,40.00,5,2,16,0.00
2013-6-10,76.0,59.8,36.0,51.0,39.9,29.0,81,52,23,0.00,40.00,6,2,14,0.04
2013-6-11,66.0,52.6,36.0,44.0,39.5,34.0,91,64,39,0.00,40.00,10,3,24,0.07
2013-6-12,66.0,56.5,47.0,46.0,35.6,33.0,94,47,30,0.00,40.00,10,4,24,0.61
2013-6-13,66.0,50.9,29.0,43.0,36.8,28.0,95,63,33,0.00,40.00,5,2,11,0.05
2013-6-14,74.0,60.5,40.0,43.0,36.2,29.0,89,48,19,0.00,40.00,7,3,17,0.00
2013-6-15,83.0,64.9,32.0,41.0,32.9,27.0,80,36,15,0.00,40.00,5,2,12,0.00
2013-6-16,86.0,68.3,39.0,44.0,36.6,32.0,76,37,16,0.00,40.00,4,2,11,0.00
2013-6-17,85.0,66.9,42.0,45.0,36.3,20.0,77,39,10,0.00,40.00,10,4,23,0.00
2013-6-18,76.0,70.5,63.0,38.0,32.2,29.0,39,25,20,0.00,40.00,15,10,36,0.00
2013-6-19,81.0,67.6,35.0,39.0,35.1,29.0,77,34,16,0.00,40.00,5,2,16,0.00
2013-6-20,74.0,59.7,33.0,39.0,36.2,27.0,79,45,25,0.00,40.00,3,1,6,0.00
2013-6-22,79.0,70.3,53.0,38.0,32.6,25.0,55,27,14,0.00,40.00,7,3,16,0.00
2013-6-23,77.0,58.9,40.0,43.0,36.1,32.0,73,46,21,0.00,40.00,4,1,8,0.00
2013-6-24,86.0,65.1,43.0,42.0,39.1,36.0,75,44,19,0.00,40.00,4,2,14,0.00
2013-6-25,89.0,68.1,43.0,47.0,41.8,36.0,75,43,20,0.00,40.00,10,3,26,0.00
2013-6-26,85.0,72.5,54.0,50.0,46.4,42.0,70,42,25,0.00,40.00,6,2,12,0.00
2013-6-27,82.0,63.1,43.0,52.0,46.5,39.0,85,58,31,0.00,40.00,5,1,11,0.00
2013-6-28,62.0,58.3,54.0,52.0,47.9,46.0,88,69,60,0.00,40.00,2,1,197,0.00
2013-6-29,72.0,58.6,50.0,53.0,51.1,49.0,100,79,48,0.00,40.00,2,0,4,0.00
2013-6-30,74.0,60.7,51.0,54.0,49.8,43.0,96,70,35,0.00,40.00,2,0,4,0.00
2013-7-1,69.0,58.6,45.0,44.0,41.6,40.0,89,56,37,0.00,40.00,2,1,8,0.00
2013-7-2,62.0,53.8,45.0,44.0,40.9,39.0,84,63,45,0.00,40.00,2,1,6,0.00
2013-7-3,64.0,52.9,42.0,46.0,41.5,38.0,91,67,43,0.00,40.00,2,1,6,0.00
2013-7-4,63.0,52.7,39.0,43.0,39.9,37.0,92,64,39,0.00,40.00,2,1,7,0.00
2013-7-5,51.0,46.9,41.0,50.0,44.4,37.0,97,91,83,0.00,40.00,1,0,2,0.00
2013-7-6,62.0,52.8,44.0,51.0,47.1,44.0,100,83,60,0.00,40.00,1,0,3,0.00
2013-7-7,63.0,54.2,46.0,49.0,46.0,42.0,97,77,48,0.00,40.00,2,0,5,0.00
2013-7-8,62.0,50.9,45.0,50.0,47.4,42.0,100,89,49,0.00,40.00,2,0,5,0.00
2013-7-9,61.0,52.4,44.0,48.0,45.1,43.0,100,78,55,0.00,40.00,2,1,4,0.00
2013-7-10,66.0,54.8,47.0,54.0,42.7,-99.9,93,69,49,0.00,40.00,2,1,6,0.00
2013-7-11,74.0,57.2,37.0,49.0,44.2,36.0,100,67,35,0.00,40.00,2,1,6,0.00
2013-7-12,78.0,61.8,40.0,48.0,42.6,37.0,90,54,23,0.00,40.00,5,2,11,0.00
2013-7-13,79.0,62.8,41.0,47.0,42.3,37.0,85,51,24,0.00,40.00,5,2,11,0.00
2013-7-14,80.0,61.8,37.0,46.0,43.7,34.0,91,56,30,0.00,40.00,4,2,10,0.00
2013-7-15,84.0,62.9,38.0,49.0,45.1,35.0,90,58,28,0.00,40.00,4,2,11,0.00
2013-7-16,80.0,70.8,57.0,54.0,49.1,43.0,63,47,33,0.00,40.00,3,1,8,0.00
2013-7-17,82.0,62.5,39.0,53.0,46.3,36.0,88,59,30,0.00,40.00,5,1,12,0.00
2013-7-18,81.0,65.5,44.0,52.0,48.4,40.0,88,58,34,0.00,40.00,5,2,11,0.00
2013-7-19,72.0,60.2,49.0,56.0,49.7,44.0,84,70,50,0.00,40.00,5,1,12,0.00
2013-7-20,65.0,56.7,49.0,56.0,49.3,-99.9,99,80,60,0.00,40.00,7,1,14,0.00
2013-7-21,67.0,57.7,39.0,48.0,45.1,38.0,98,65,47,0.00,40.00,5,2,14,0.00
2013-7-22,79.0,63.9,46.0,50.0,45.0,41.0,90,55,27,0.00,40.00,8,4,22,0.00
2013-7-23,82.0,65.9,42.0,48.0,43.5,38.0,86,48,25,0.00,40.00,5,2,12,0.00
2013-7-24,80.0,63.9,38.0,48.0,43.5,34.0,84,51,30,0.00,40.00,3,1,9,0.00
2013-7-25,67.0,58.6,53.0,57.0,53.2,47.0,100,84,59,0.00,40.00,4,2,10,0.00
2013-7-26,73.0,59.0,52.0,56.0,53.5,49.0,100,84,54,0.00,40.00,3,1,9,0.00
2013-7-27,80.0,61.2,45.0,54.0,49.8,44.0,99,71,39,0.00,40.00,4,2,11,0.00
2013-7-28,83.0,63.3,42.0,53.0,47.6,40.0,93,61,33,0.00,40.00,4,2,10,0.00
2013-7-29,86.0,63.1,41.0,50.0,45.2,38.0,89,57,27,0.00,40.00,4,1,10,0.00
2013-7-30,86.0,64.4,41.0,51.0,46.0,37.0,88,56,30,0.00,40.00,4,1,10,0.00
2013-7-31,79.0,62.6,41.0,54.0,47.4,38.0,89,61,39,0.00,40.00,4,2,11,0.00
2013-8-1,84.0,62.8,38.0,52.0,46.1,36.0,91,59,30,0.00,40.00,3,1,10,0.00
2013-8-2,83.0,62.9,39.0,46.0,40.1,27.0,83,48,16,0.00,40.00,4,2,13,0.00
2013-8-3,68.0,57.2,37.0,53.0,42.4,30.0,80,60,36,0.00,40.00,3,1,9,0.00
2013-8-4,68.0,55.3,47.0,57.0,50.8,46.0,99,87,54,0.00,40.00,3,1,9,0.00
2013-8-5,74.0,59.5,47.0,54.0,48.7,42.0,100,73,34,0.00,40.00,4,1,8,0.00
2013-8-6,77.0,58.4,34.0,47.0,42.6,33.0,96,62,28,0.00,40.00,4,2,10,0.00
2013-8-7,70.0,56.7,29.0,45.0,41.0,27.0,94,60,37,0.00,40.00,3,1,9,0.00
2013-8-8,72.0,57.3,47.0,47.0,44.7,42.0,91,66,37,0.00,40.00,4,1,13,0.02
2013-8-9,63.0,55.8,47.0,53.0,47.4,43.0,97,75,50,0.00,40.00,3,1,8,0.07
2013-8-10,69.0,58.6,49.0,56.0,49.8,46.0,97,75,44,0.00,40.00,3,1,9,0.01
2013-8-11,81.0,61.4,41.0,53.0,47.4,40.0,97,65,30,0.00,40.00,4,2,10,0.00
2013-8-12,82.0,60.9,35.0,51.0,45.7,33.0,93,62,32,0.00,40.00,4,1,11,0.00
2013-8-13,84.0,59.5,36.0,48.0,41.5,-99.9,91,60,24,0.00,40.00,4,1,9,0.00
2013-8-14,82.0,56.2,32.0,47.0,39.1,-99.9,90,60,25,0.00,40.00,3,1,8,0.00
2013-8-15,80.0,48.4,33.0,47.0,26.7,-99.9,90,60,28,0.00,40.00,4,1,10,0.00
2013-8-16,75.0,58.9,35.0,45.0,37.5,-99.9,88,52,32,0.00,40.00,5,2,10,0.00
2013-8-17,57.0,53.0,48.0,53.0,48.5,42.0,99,85,60,0.00,40.00,1,0,5,0.14
2013-8-18,64.0,53.1,47.0,54.0,49.2,46.0,99,88,56,0.00,40.00,5,1,12,0.15
2013-8-24,63.0,50.2,37.0,48.0,42.0,33.0,100,77,41,0.00,40.00,8,2,21,0.05
2013-8-25,57.0,47.9,35.0,49.0,39.3,33.0,99,74,47,0.00,40.00,7,2,16,0.05
2013-8-26,67.0,51.0,35.0,47.0,43.0,35.0,99,78,42,0.00,40.00,3,1,10,0.01
2013-8-27,59.0,38.6,28.0,44.0,34.1,27.0,97,86,58,0.00,40.00,1,0,5,0.00
2013-8-28,66.0,58.5,50.0,52.0,45.9,41.0,99,65,46,0.00,40.00,5,2,14,0.03
2013-8-29,68.0,54.0,39.0,48.0,43.1,37.0,94,71,33,0.00,40.00,3,1,9,0.01
2013-8-30,67.0,48.1,27.0,49.0,37.9,26.0,95,72,38,0.00,40.00,2,1,8,0.00
2013-8-31,57.0,50.7,47.0,53.0,48.7,43.0,99,93,82,0.00,40.00,2,1,7,0.30
2013-9-1,60.0,51.4,46.0,52.0,48.5,46.0,100,90,67,0.00,40.00,3,0,9,0.16
2013-9-2,51.0,49.2,47.0,51.0,48.6,47.0,100,98,97,0.00,40.00,2,0,7,0.17
2013-9-3,57.0,50.4,46.0,51.0,48.7,46.0,100,94,80,0.00,40.00,5,1,12,0.11
2013-9-4,65.0,52.2,46.0,47.0,43.2,40.0,99,74,40,0.00,40.00,6,2,21,0.03
2013-9-5,64.0,50.2,36.0,43.0,38.6,34.0,96,69,35,0.00,40.00,5,2,14,0.00
2013-9-6,49.0,42.5,28.0,48.0,41.5,27.0,100,96,90,0.00,40.00,2,0,6,1.04
2013-9-7,55.0,46.2,38.0,52.0,45.4,38.0,100,97,88,0.00,40.00,6,1,17,0.83
2013-9-17,49.0,42.6,38.0,44.0,40.7,37.0,99,94,79,0.00,40.00,3,1,7,0.25
2013-9-18,46.0,41.7,38.0,42.0,40.4,38.0,99,95,83,0.00,40.00,2,0,5,0.02
2013-9-19,57.0,42.5,31.0,38.0,34.9,30.0,98,78,41,0.00,40.00,6,2,15,0.00
2013-9-20,44.0,36.3,25.0,35.0,29.4,23.0,94,77,58,0.00,40.00,3,1,7,0.00
2013-9-21,40.0,32.2,22.0,37.0,29.6,20.0,96,90,73,0.00,40.00,2,0,5,0.01
2013-9-22,45.0,37.8,31.0,35.0,33.1,30.0,98,84,65,0.00,40.00,4,2,11,0.01
2013-9-23,41.0,36.2,33.0,33.0,29.3,28.0,90,77,61,0.00,40.00,4,1,11,0.00
2013-10-3,51.0,36.7,27.0,31.0,26.9,23.0,90,71,33,0.00,40.00,7,1,21,0.00
2013-10-4,51.0,37.9,28.0,34.0,29.9,24.0,87,74,52,0.00,40.00,2,0,6,0.00
2013-10-5,47.0,38.4,32.0,39.0,34.0,29.0,95,84,69,0.00,40.00,2,0,7,0.00
2013-10-6,48.0,37.9,26.0,37.0,31.7,25.0,96,80,53,0.00,40.00,3,1,9,0.01
2013-10-7,46.0,36.8,26.0,37.0,34.4,25.0,98,92,72,0.00,40.00,3,0,6,0.14
2013-10-8,38.0,32.8,27.0,37.0,31.9,26.0,99,97,93,0.00,40.00,2,1,7,0.18
2013-10-9,43.0,36.7,33.0,39.0,35.6,29.0,99,95,81,0.00,40.00,3,0,9,0.37
2013-10-17,41.0,37.1,29.0,40.0,35.3,28.0,99,93,81,0.00,40.00,2,0,6,0.05
2013-10-18,56.0,42.9,36.0,41.0,36.0,31.0,99,80,45,0.00,40.00,5,2,15,0.01
2013-10-19,55.0,43.5,34.0,40.0,31.7,22.0,85,66,39,0.00,40.00,9,3,21,0.01
2013-10-20,52.0,39.3,28.0,29.0,26.3,24.0,88,62,34,0.00,40.00,5,2,13,0.00
2013-10-21,48.0,32.4,21.0,30.0,24.8,18.0,89,75,42,0.00,40.00,2,1,8,0.00
2013-10-22,43.0,26.0,14.0,25.0,18.7,11.0,90,76,45,0.00,40.00,1,0,6,0.00
2013-10-23,30.0,24.6,20.0,28.0,22.0,16.0,95,89,84,0.00,40.00,3,0,8,0.00
2013-10-24,30.0,25.7,13.0,27.0,23.8,10.0,96,92,86,0.00,40.00,2,0,6,0.00
2013-10-25,36.0,31.9,28.0,35.0,31.3,27.0,99,97,96,0.00,40.00,1,0,5,0.19
2013-10-26,44.0,34.1,28.0,38.0,32.8,27.0,99,95,75,0.00,40.00,3,1,9,0.31
2013-10-27,35.0,30.6,26.0,34.0,29.6,25.0,99,96,90,0.00,40.00,3,1,6,0.09
2013-10-28,59.0,46.6,35.0,43.0,36.1,-99.9,99,72,41,0.00,40.00,7,4,25,0.06
2013-10-29,46.0,40.8,29.0,37.0,29.9,27.0,92,66,52,0.00,40.00,5,3,12,0.01
2013-10-30,39.0,32.7,28.0,32.0,29.2,27.0,97,87,73,0.00,40.00,2,1,7,0.00
2013-10-31,42.0,32.6,28.0,34.0,29.3,27.0,96,88,62,0.00,40.00,4,1,12,0.00
2013-11-1,42.0,29.0,17.0,29.0,25.1,15.0,95,86,53,0.00,40.00,2,0,4,0.00
2013-11-2,32.0,20.2,8.0,23.0,15.7,4.0,90,83,64,0.00,40.00,1,0,4,0.00
2013-11-3,35.0,23.8,15.0,23.0,19.0,12.0,90,82,53,0.00,40.00,2,0,5,0.00
2013-11-4,30.0,18.6,8.0,22.0,13.9,4.0,89,82,63,0.00,40.00,3,1,7,0.00
2013-11-5,31.0,22.1,12.0,24.0,17.8,9.0,91,84,68,0.00,40.00,1,0,4,0.00
2013-11-6,30.0,21.9,13.0,21.0,16.8,10.0,92,81,61,0.00,40.00,2,0,6,0.00
2013-11-7,22.0,16.8,9.0,16.0,12.6,5.0,88,83,73,0.00,40.00,1,0,4,0.00
2013-11-8,18.0,14.1,11.0,12.0,8.6,6.0,85,79,69,0.00,40.00,2,1,6,0.00
2013-11-9,18.0,9.5,-6.0,9.0,1.7,-12.0,80,70,54,0.00,40.00,2,0,5,0.00
2013-11-10,41.0,28.1,18.0,30.0,21.8,9.0,93,78,58,0.00,40.00,7,2,15,0.10
2013-11-11,41.0,32.0,24.0,33.0,26.9,20.0,90,82,63,0.00,40.00,6,2,16,0.11
2013-11-12,23.0,13.9,-10.0,20.0,9.6,-17.0,89,83,70,0.00,40.00,3,1,8,0.00
2013-11-13,16.0,6.9,-12.0,10.0,1.9,-19.0,86,79,70,0.00,40.00,2,0,4,0.00
2013-11-14,27.0,19.3,9.0,24.0,16.2,5.0,93,87,79,0.00,40.00,2,1,8,0.00
2013-11-15,20.0,12.7,4.0,15.0,9.0,0.0,88,85,81,0.00,40.00,2,0,5,0.00
2013-11-16,16.0,8.6,-6.0,7.0,-0.5,-11.0,84,68,32,0.00,40.00,9,3,25,0.00
2013-11-17,15.0,5.5,-20.0,-6.0,-14.2,-29.0,71,43,22,0.00,40.00,9,5,28,0.00
2013-11-18,-5.0,-21.4,-29.0,-13.0,-30.5,-39.0,67,61,57,0.00,40.00,1,0,4,0.00
2013-11-19,-9.0,-21.4,-30.0,-17.0,-30.3,-40.0,67,61,57,0.00,40.00,1,0,3,0.00
2013-11-20,-17.0,-25.1,-38.0,-26.0,-42.7,-99.9,61,57,51,0.00,40.00,0,0,3,0.00
2013-11-21,-4.0,-21.3,-37.0,-10.0,-47.3,-99.9,73,58,52,0.00,40.00,0,0,3,0.00
2013-11-22,41.0,25.6,-3.0,37.0,22.7,-9.0,98,88,75,0.00,40.00,6,2,15,1.00
2013-11-23,35.0,26.8,20.0,34.0,23.8,16.0,98,88,70,0.00,40.00,5,1,14,0.14
2013-11-24,28.0,21.0,11.0,22.0,17.5,7.0,91,86,78,0.00,40.00,0,0,0,0.00
2013-11-25,17.0,10.5,1.0,14.0,6.9,-4.0,89,85,79,0.00,40.00,0,0,0,0.00
2013-11-26,23.0,18.4,14.0,20.0,15.9,11.0,92,89,87,0.00,40.00,0,0,0,0.00
2013-11-27,22.0,20.0,18.0,20.0,17.9,16.0,92,91,89,0.00,40.00,0,0,0,0.00
2013-11-28,21.0,15.6,7.0,19.0,12.4,2.0,92,87,80,0.00,40.00,0,0,0,0.00
2013-11-29,7.0,0.7,-3.0,2.0,-5.0,-9.0,81,77,73,0.00,40.00,0,0,0,0.00
2013-11-30,-3.0,-13.6,-28.0,-9.0,-21.1,-37.0,76,68,60,0.00,40.00,0,0,0,0.00
2013-12-12,9.0,7.1,6.0,4.0,2.3,1.0,83,81,79,0.00,40.00,5,3,18,0.00
2013-12-13,9.0,7.1,4.0,4.0,2.6,0.0,83,81,79,0.00,40.00,4,1,8,0.00
2013-12-14,13.0,9.8,7.0,9.0,5.8,3.0,84,83,82,0.00,40.00,2,0,6,0.00
2013-12-15,9.0,-1.8,-8.0,5.0,-7.2,-14.0,83,77,73,0.00,40.00,2,0,6,0.00
2013-12-16,4.0,-0.6,-7.0,-2.0,-5.9,-13.0,79,77,74,0.00,40.00,1,0,4,0.00
2013-12-17,-6.0,-15.3,-31.0,-12.0,-27.8,-99.9,75,66,57,0.00,40.00,1,0,4,0.00
2013-12-18,-6.0,-23.2,-35.0,-16.0,-42.8,-99.9,72,60,54,0.00,40.00,0,0,4,0.00
2013-12-19,4.0,-1.0,-6.0,-1.0,-6.6,-12.0,81,76,71,0.00,40.00,3,0,7,0.00
2013-12-20,2.0,0.0,-3.0,-3.0,-4.9,-8.0,81,79,77,0.00,40.00,0,0,3,0.00
2013-12-21,16.0,10.8,2.0,13.0,7.2,-3.0,88,85,80,0.00,40.00,0,0,4,0.00
2013-12-31,9.0,2.7,-5.0,5.0,-2.1,-11.0,85,80,75,0.00,40.00,1,0,4,0.00
2014-1-1,29.0,20.7,11.0,26.0,18.6,8.0,94,91,86,0.00,40.00,4,1,11,0.00
2014-1-2,27.0,12.2,1.0,24.0,8.5,-4.0,93,85,79,0.00,40.00,3,0,7,0.00